Terminal Aerodrome Forecast
Issued by NWS

Home | Current Version | Previous Version | Text Only | Print | Product List | Glossary On
Versions: 1 2 3 4 5 6 7 8 9 10 11 12 13 14 15 16 17 18 19
000
FTUS42 KFFC 240500
TAFFTY
TAF
KFTY 240522Z 2406/2506 00000KT P6SM SKC
     FM241100 08006KT P6SM SKC
     FM241300 09010KT P6SM SKC
     FM241700 14006KT P6SM FEW060
     FM242300 16006KT P6SM BKN060=

USA.gov is the U.S. government's official web portal to all federal, state and local government web resources and services.